Belle Mead, New Jersey
Current Conditions -  °F | °C
As of 6:53 PM on Wednesday 28 Jan 2015 (Local Time) from KSMQ Reporting Station
Clear Clear  
Wind Chill: 24°   Ceiling: Unl
Heat Index: 24°   Visibility: 10mi
Dew Point:   Wind: 0mph
Humidity: 37%   Direction: NA
Pressure: 30.2"   Gusts: NA
Location:  40.47°N, 74.66°W
Report Text: KSMQ 282353Z AUTO 00000KT 10SM CLR M04/M17 A3020 RMK AO2 SLP231 T10441172 10017 21050 51033 TSNO
Loading
Personal Weather Stations






























Interactive Weather Map New forecast layout! Learn more

10-Day Weather Forecast

Advertisements
Track Severe Weather on mobile